Time;durP1;ratioP1;P1;durP2;ratioP2;P2;SDS_P1;SDS_P2;PMS_P1;PMS_P2;Temp;Humidity;BMP_temperature;BMP_pressure;BME280_temperature;BME280_humidity;BME280_pressure;Samples;Min_cycle;Max_cycle;Signal;HPM_P1;HPM_P2
2023/03/09 00:02:00;;;;;;;1.97;1.10;;;10.00;99.90;;;;;;4958482;28;20187;-83
2023/03/09 00:04:26;;;;;;;1.27;0.80;;;10.00;99.90;;;;;;4940742;28;20235;-83
2023/03/09 00:06:51;;;;;;;1.20;0.93;;;10.00;99.90;;;;;;4950220;28;20191;-82
2023/03/09 00:09:17;;;;;;;2.70;1.10;;;10.00;99.90;;;;;;4956479;28;20510;-82
2023/03/09 00:11:44;;;;;;;2.90;2.05;;;9.90;99.90;;;;;;4938880;28;20191;-81
2023/03/09 00:14:11;;;;;;;1.50;1.20;;;9.90;99.90;;;;;;4937243;28;20214;-83
2023/03/09 00:16:38;;;;;;;3.22;1.40;;;9.90;99.90;;;;;;4940132;28;20278;-83
2023/03/09 00:19:04;;;;;;;1.40;0.88;;;9.90;99.90;;;;;;4954882;28;21433;-83
2023/03/09 00:21:36;;;;;;;3.13;0.95;;;9.90;99.90;;;;;;4927759;28;21308;-86
2023/03/09 00:24:05;;;;;;;0.85;0.30;;;9.80;99.90;;;;;;4958401;28;20199;-82
2023/03/09 00:26:31;;;;;;;0.57;0.57;;;9.60;99.90;;;;;;4954497;28;20184;-83
2023/03/09 00:28:57;;;;;;;4.70;0.57;;;9.30;99.90;;;;;;4940146;28;20183;-82
2023/03/09 00:31:23;;;;;;;2.90;0.53;;;9.20;99.90;;;;;;4945365;28;20211;-84
2023/03/09 00:33:49;;;;;;;0.97;0.60;;;9.20;99.90;;;;;;4962011;28;20190;-81
2023/03/09 00:36:15;;;;;;;1.13;0.60;;;9.10;99.90;;;;;;4960448;28;21230;-82
2023/03/09 00:38:41;;;;;;;1.30;0.65;;;9.10;99.90;;;;;;4961824;28;20456;-81
2023/03/09 00:41:06;;;;;;;0.97;0.60;;;9.10;99.90;;;;;;4955025;28;20203;-84
2023/03/09 00:43:32;;;;;;;0.80;0.50;;;9.00;99.90;;;;;;4949393;28;20678;-79
2023/03/09 00:45:57;;;;;;;1.47;0.97;;;9.10;99.90;;;;;;4967586;28;20202;-80
2023/03/09 00:48:23;;;;;;;1.27;0.80;;;8.90;99.90;;;;;;4950280;28;20172;-80
2023/03/09 00:50:49;;;;;;;0.50;0.50;;;9.00;99.90;;;;;;4944511;28;20250;-82
2023/03/09 00:53:15;;;;;;;0.70;0.70;;;8.90;99.90;;;;;;4939569;28;20451;-82
2023/03/09 00:55:40;;;;;;;0.88;0.57;;;8.90;99.90;;;;;;4949074;28;20659;-82
2023/03/09 00:58:06;;;;;;;0.63;0.63;;;8.90;99.90;;;;;;4960252;28;20250;-83
2023/03/09 01:00:34;;;;;;;1.63;0.73;;;8.90;99.90;;;;;;4970024;28;20199;-83
2023/03/09 01:03:00;;;;;;;1.52;0.77;;;8.90;99.90;;;;;;4955764;28;20193;-82
2023/03/09 01:05:26;;;;;;;1.60;1.40;;;8.90;99.90;;;;;;4952932;28;23111;-84
2023/03/09 01:07:52;;;;;;;1.15;0.60;;;8.90;99.90;;;;;;4953555;28;20230;-82
2023/03/09 01:10:18;;;;;;;2.17;1.30;;;8.90;99.90;;;;;;4956005;28;20199;-80
2023/03/09 01:12:43;;;;;;;2.50;0.93;;;9.00;99.90;;;;;;4957492;28;20248;-83
2023/03/09 01:15:10;;;;;;;0.70;0.70;;;9.00;99.90;;;;;;4935837;28;20199;-80
2023/03/09 01:17:35;;;;;;;0.88;0.75;;;9.20;99.90;;;;;;4936402;28;20227;-84
2023/03/09 01:20:01;;;;;;;6.00;1.10;;;9.20;99.90;;;;;;4960207;28;20723;-84
2023/03/09 01:22:26;;;;;;;1.70;1.13;;;9.30;99.90;;;;;;4941801;28;20184;-80
2023/03/09 01:24:52;;;;;;;1.00;0.67;;;9.40;99.90;;;;;;4963604;28;20203;-83
2023/03/09 01:27:17;;;;;;;0.60;0.60;;;9.50;99.90;;;;;;4959309;28;20905;-80
2023/03/09 01:29:43;;;;;;;3.60;0.60;;;9.60;99.90;;;;;;4971016;28;20234;-79
2023/03/09 01:32:12;;;;;;;0.93;0.60;;;9.60;99.90;;;;;;4995419;28;20262;-77
2023/03/09 01:34:37;;;;;;;0.40;0.40;;;9.70;99.90;;;;;;4979514;28;20188;-77
2023/03/09 01:37:03;;;;;;;1.90;0.60;;;9.70;99.90;;;;;;4978221;28;20545;-76
2023/03/09 01:39:28;;;;;;;2.53;0.93;;;9.70;99.90;;;;;;4978073;28;20259;-76
2023/03/09 01:41:54;;;;;;;4.93;1.00;;;9.70;99.90;;;;;;5000830;28;20240;-77
2023/03/09 01:44:19;;;;;;;3.07;0.50;;;9.90;99.90;;;;;;4978193;28;20308;-77
2023/03/09 01:46:49;;;;;;;2.33;0.77;;;9.80;99.90;;;;;;4984562;28;20171;-76
2023/03/09 01:49:21;;;;;;;2.75;0.85;;;9.80;99.90;;;;;;4993555;28;20192;-76
2023/03/09 01:51:53;;;;;;;1.95;0.70;;;9.90;99.90;;;;;;4992435;28;20202;-77
2023/03/09 01:54:24;;;;;;;1.13;0.68;;;9.90;99.90;;;;;;4986415;28;20188;-77
2023/03/09 01:56:56;;;;;;;2.20;0.90;;;10.00;99.90;;;;;;4989466;28;20198;-77
2023/03/09 01:59:25;;;;;;;1.48;0.73;;;10.00;99.90;;;;;;4961097;28;20661;-82
2023/03/09 02:01:51;;;;;;;1.15;0.40;;;10.00;99.90;;;;;;4950276;28;20219;-79
2023/03/09 02:04:43;;;;;;;2.40;0.90;;;10.00;99.90;;;;;;4994679;28;20211;-78
2023/03/09 02:07:10;;;;;;;4.10;0.70;;;9.90;99.90;;;;;;4946585;28;20906;-83
2023/03/09 02:09:42;;;;;;;0.98;0.80;;;10.00;99.90;;;;;;4953894;28;20196;-85
2023/03/09 02:12:12;;;;;;;0.85;0.70;;;10.10;99.90;;;;;;4977900;28;20175;-82
2023/03/09 02:14:38;;;;;;;2.35;0.70;;;10.80;99.90;;;;;;4942657;28;20175;-77
2023/03/09 02:17:03;;;;;;;3.30;0.63;;;10.10;99.90;;;;;;4964719;28;20270;-80
2023/03/09 02:19:55;;;;;;;0.70;0.60;;;10.10;99.90;;;;;;4967764;28;20207;-84
2023/03/09 02:22:21;;;;;;;3.42;1.20;;;10.20;99.90;;;;;;4945604;28;20191;-82
2023/03/09 02:24:55;;;;;;;2.20;0.60;;;10.20;99.90;;;;;;4964204;28;20216;-84
2023/03/09 02:27:23;;;;;;;1.58;0.52;;;10.10;99.90;;;;;;4969522;28;20182;-81
2023/03/09 02:29:49;;;;;;;2.25;0.50;;;10.20;99.90;;;;;;4933996;28;21001;-82
2023/03/09 02:32:15;;;;;;;1.60;0.30;;;10.10;99.90;;;;;;4965201;28;21152;-80
2023/03/09 02:34:40;;;;;;;1.43;0.50;;;10.20;99.90;;;;;;4963294;28;20195;-82
2023/03/09 02:37:29;;;;;;;0.60;0.40;;;10.20;99.90;;;;;;4961232;28;20191;-82
2023/03/09 02:39:58;;;;;;;0.60;0.40;;;10.20;99.90;;;;;;4966085;28;20211;-82
2023/03/09 02:42:25;;;;;;;1.30;0.45;;;10.20;99.90;;;;;;4968668;28;20196;-83
2023/03/09 02:44:50;;;;;;;2.65;0.70;;;10.20;99.90;;;;;;4958893;28;20226;-83
2023/03/09 02:47:19;;;;;;;1.90;0.60;;;10.10;99.90;;;;;;4940956;28;22431;-79
2023/03/09 02:49:45;;;;;;;0.77;0.40;;;10.00;99.90;;;;;;4942281;28;20213;-79
2023/03/09 02:52:10;;;;;;;0.57;0.40;;;9.80;99.90;;;;;;4949798;28;20184;-84
2023/03/09 02:54:36;;;;;;;1.07;0.60;;;9.70;99.90;;;;;;4955589;28;20196;-82
2023/03/09 02:57:02;;;;;;;1.47;0.70;;;9.80;99.90;;;;;;4956112;28;20199;-77
2023/03/09 02:59:27;;;;;;;2.63;0.40;;;9.50;99.90;;;;;;4956145;28;20203;-82
2023/03/09 03:01:53;;;;;;;0.47;0.40;;;9.50;99.90;;;;;;4937691;28;20194;-81
2023/03/09 03:04:18;;;;;;;1.87;0.90;;;9.40;99.90;;;;;;4956139;28;20320;-82
2023/03/09 03:06:44;;;;;;;0.80;0.50;;;9.40;99.90;;;;;;4959411;28;20250;-77
2023/03/09 03:09:09;;;;;;;0.53;0.30;;;9.30;99.90;;;;;;4943372;28;20180;-82
2023/03/09 03:11:35;;;;;;;0.50;0.40;;;9.30;99.90;;;;;;4942943;28;20225;-83
2023/03/09 03:14:00;;;;;;;0.70;0.60;;;9.20;99.90;;;;;;4954040;28;20263;-78
2023/03/09 03:16:26;;;;;;;1.33;0.50;;;9.10;99.90;;;;;;4972580;28;20202;-80
2023/03/09 03:18:51;;;;;;;3.60;0.50;;;9.00;99.90;;;;;;4954413;28;20194;-84
2023/03/09 03:21:17;;;;;;;0.70;0.40;;;8.90;99.90;;;;;;4957619;28;20211;-81
2023/03/09 03:23:42;;;;;;;0.90;0.53;;;8.80;99.90;;;;;;4949988;28;20196;-82
2023/03/09 03:26:09;;;;;;;1.63;0.60;;;8.70;99.90;;;;;;4952987;28;20179;-84
2023/03/09 03:28:35;;;;;;;0.93;0.30;;;8.70;99.90;;;;;;4953618;28;20211;-80
2023/03/09 03:31:01;;;;;;;1.40;0.57;;;8.60;99.90;;;;;;4962645;28;20316;-83
2023/03/09 03:33:27;;;;;;;0.52;0.45;;;8.60;99.90;;;;;;4962794;28;20439;-82
2023/03/09 03:35:53;;;;;;;2.43;0.60;;;8.60;99.90;;;;;;4962493;28;20250;-85
2023/03/09 03:38:18;;;;;;;0.97;0.40;;;8.50;99.90;;;;;;4969588;28;20188;-81
2023/03/09 03:40:44;;;;;;;1.13;0.83;;;8.50;99.90;;;;;;4950974;28;20254;-82
2023/03/09 03:43:09;;;;;;;1.60;0.40;;;8.50;99.90;;;;;;4973753;28;20194;-82
2023/03/09 03:45:35;;;;;;;9.40;0.83;;;8.50;99.90;;;;;;4950263;28;20314;-81
2023/03/09 03:48:00;;;;;;;4.03;0.57;;;8.50;99.90;;;;;;4954571;28;20176;-78
2023/03/09 03:50:26;;;;;;;2.90;0.40;;;8.50;99.90;;;;;;4953584;28;20957;-83
2023/03/09 03:52:51;;;;;;;5.10;1.03;;;8.50;99.90;;;;;;4970011;28;20211;-79
2023/03/09 03:55:17;;;;;;;2.00;0.60;;;8.60;99.90;;;;;;4961790;28;20246;-83
2023/03/09 03:57:42;;;;;;;1.23;0.80;;;8.60;99.90;;;;;;4963643;28;20191;-83
2023/03/09 04:00:11;;;;;;;0.53;0.53;;;8.60;99.90;;;;;;4939738;28;20223;-80
2023/03/09 04:02:38;;;;;;;1.13;0.77;;;8.60;99.90;;;;;;4941826;28;20273;-83
2023/03/09 04:05:04;;;;;;;2.03;0.60;;;8.60;99.90;;;;;;4952032;28;20234;-84
2023/03/09 04:07:29;;;;;;;2.25;0.55;;;8.60;99.90;;;;;;4938907;28;20179;-83
2023/03/09 04:09:55;;;;;;;0.40;0.40;;;;;;;;;;4963855;28;20207;-83
2023/03/09 04:12:21;;;;;;;23.70;1.07;;;8.60;99.90;;;;;;4957069;28;20198;-82
2023/03/09 04:14:46;;;;;;;1.33;0.60;;;8.70;99.90;;;;;;4949124;28;20438;-80
2023/03/09 04:17:12;;;;;;;6.00;0.60;;;8.60;99.90;;;;;;4959089;28;21097;-83
2023/03/09 04:19:38;;;;;;;0.67;0.57;;;8.70;99.90;;;;;;4939270;28;20299;-83
2023/03/09 04:22:03;;;;;;;1.63;0.50;;;8.60;99.90;;;;;;4956874;28;20184;-80
2023/03/09 04:24:29;;;;;;;8.50;1.50;;;8.60;99.90;;;;;;4960951;28;20749;-83
2023/03/09 04:26:55;;;;;;;4.43;1.13;;;8.70;99.90;;;;;;4952914;28;20235;-79
2023/03/09 04:29:21;;;;;;;3.80;0.70;;;;;;;;;;4960907;28;20179;-81
2023/03/09 04:31:46;;;;;;;3.75;0.95;;;8.70;99.90;;;;;;4955839;28;20303;-78
2023/03/09 04:34:12;;;;;;;1.20;0.73;;;8.70;99.90;;;;;;4966848;28;20307;-81
2023/03/09 04:36:38;;;;;;;4.90;0.90;;;8.80;99.90;;;;;;4968773;28;20198;-83
2023/03/09 04:39:04;;;;;;;2.00;1.17;;;;;;;;;;4948237;28;20542;-78
2023/03/09 04:41:30;;;;;;;2.75;1.92;;;8.70;99.90;;;;;;4961311;28;20949;-81
2023/03/09 04:43:57;;;;;;;7.60;1.42;;;8.70;99.90;;;;;;4966492;28;20727;-82
2023/03/09 04:46:22;;;;;;;5.75;1.45;;;8.70;99.90;;;;;;4963667;28;20188;-82
2023/03/09 04:48:48;;;;;;;3.80;0.70;;;8.70;99.90;;;;;;4947983;28;20231;-83
2023/03/09 04:51:13;;;;;;;4.07;1.20;;;8.70;99.90;;;;;;4958127;28;20314;-79
2023/03/09 04:53:39;;;;;;;6.47;0.67;;;8.70;99.90;;;;;;4964788;28;20359;-84
2023/03/09 04:56:05;;;;;;;4.03;0.80;;;8.70;99.90;;;;;;4945433;28;20274;-83
2023/03/09 04:58:31;;;;;;;4.82;1.50;;;8.80;99.90;;;;;;4964320;28;20187;-81
2023/03/09 05:00:56;;;;;;;2.83;0.90;;;8.80;99.90;;;;;;4950377;28;20211;-82
2023/03/09 05:03:22;;;;;;;1.83;1.27;;;8.80;99.90;;;;;;4966816;28;20623;-80
2023/03/09 05:05:47;;;;;;;2.33;1.17;;;8.70;99.90;;;;;;4967640;28;20211;-82
2023/03/09 05:08:13;;;;;;;2.33;1.30;;;8.80;99.90;;;;;;4946772;28;20195;-84
2023/03/09 05:10:38;;;;;;;4.50;1.13;;;8.70;99.90;;;;;;4945510;28;20199;-81
2023/03/09 05:13:04;;;;;;;5.30;1.87;;;8.70;99.90;;;;;;4962820;28;20176;-78
2023/03/09 05:15:31;;;;;;;4.57;1.63;;;8.60;99.90;;;;;;4939903;28;22316;-79
2023/03/09 05:17:56;;;;;;;2.50;1.40;;;8.60;99.90;;;;;;4957681;28;20195;-80
2023/03/09 05:20:23;;;;;;;4.23;1.23;;;8.60;99.90;;;;;;4973852;28;20210;-82
2023/03/09 05:22:48;;;;;;;1.83;1.15;;;8.50;99.90;;;;;;4947813;28;21632;-82
2023/03/09 05:25:14;;;;;;;3.77;1.17;;;8.50;99.90;;;;;;4953383;28;20215;-84
2023/03/09 05:27:40;;;;;;;5.72;0.80;;;8.40;99.90;;;;;;4946848;28;20232;-81
2023/03/09 05:30:06;;;;;;;2.10;0.87;;;8.40;99.90;;;;;;4953648;28;20207;-81
2023/03/09 05:32:32;;;;;;;4.35;1.42;;;8.40;99.90;;;;;;4967975;28;20270;-84
2023/03/09 05:34:57;;;;;;;4.67;1.40;;;8.50;99.90;;;;;;4974897;28;20323;-84
2023/03/09 05:37:23;;;;;;;9.60;1.47;;;8.50;99.90;;;;;;4960060;28;20190;-81
2023/03/09 05:39:50;;;;;;;1.83;1.03;;;8.50;99.90;;;;;;4964803;28;20210;-83
2023/03/09 05:42:16;;;;;;;7.28;1.70;;;8.50;99.90;;;;;;4955582;28;20535;-81
2023/03/09 05:44:41;;;;;;;1.80;1.23;;;8.50;99.90;;;;;;4970826;28;20218;-83
2023/03/09 05:47:07;;;;;;;7.30;1.37;;;8.50;99.90;;;;;;4951665;28;20187;-78
2023/03/09 05:49:33;;;;;;;2.72;1.63;;;8.50;99.90;;;;;;4953191;28;20209;-81
2023/03/09 05:51:59;;;;;;;8.37;1.17;;;8.50;99.90;;;;;;4962787;28;20187;-81
2023/03/09 05:54:24;;;;;;;3.80;1.70;;;8.50;99.90;;;;;;4960305;28;20281;-82
2023/03/09 05:56:54;;;;;;;8.90;1.97;;;8.70;99.90;;;;;;4957644;28;20593;-84
2023/03/09 05:59:19;;;;;;;3.60;1.02;;;8.70;99.90;;;;;;4927993;28;20283;-83
2023/03/09 06:01:45;;;;;;;8.83;1.43;;;8.80;99.90;;;;;;4943433;28;20210;-83
2023/03/09 06:04:10;;;;;;;11.10;2.00;;;8.80;99.90;;;;;;4952221;28;20857;-82
2023/03/09 06:06:36;;;;;;;2.43;1.27;;;8.90;99.90;;;;;;4946894;28;20183;-83
2023/03/09 06:09:02;;;;;;;11.57;1.47;;;8.80;99.90;;;;;;4946167;28;20259;-81
2023/03/09 06:11:27;;;;;;;7.77;1.50;;;8.80;99.90;;;;;;4956780;28;20283;-82
2023/03/09 06:13:56;;;;;;;5.60;2.07;;;8.80;99.90;;;;;;4951217;28;20735;-81
2023/03/09 06:16:24;;;;;;;4.60;1.75;;;8.90;99.90;;;;;;4953774;28;20257;-84
2023/03/09 06:18:50;;;;;;;12.18;3.65;;;8.90;99.90;;;;;;4978395;28;20182;-84
2023/03/09 06:21:15;;;;;;;2.63;1.33;;;9.00;99.90;;;;;;4960367;28;20203;-83
2023/03/09 06:23:41;;;;;;;13.27;1.53;;;9.10;99.90;;;;;;4980537;28;20772;-83
2023/03/09 06:26:11;;;;;;;5.30;1.33;;;9.20;99.90;;;;;;4957772;28;20586;-82
2023/03/09 06:28:36;;;;;;;7.63;1.88;;;9.20;99.90;;;;;;4970287;28;20239;-83
2023/03/09 06:31:11;;;;;;;7.63;1.30;;;9.30;99.90;;;;;;4959207;28;20223;-83
2023/03/09 06:33:41;;;;;;;7.60;1.83;;;9.30;99.90;;;;;;4960261;28;20230;-82
2023/03/09 06:36:09;;;;;;;3.33;1.25;;;9.30;99.90;;;;;;4960189;28;20187;-84
2023/03/09 06:38:34;;;;;;;7.68;1.52;;;9.30;99.90;;;;;;4949650;28;20186;-85
2023/03/09 06:41:01;;;;;;;6.30;1.77;;;9.40;99.90;;;;;;4952441;28;20278;-82
2023/03/09 06:43:27;;;;;;;5.63;1.63;;;9.60;99.90;;;;;;4950848;28;20184;-82
2023/03/09 06:45:53;;;;;;;9.30;1.60;;;9.60;99.90;;;;;;4950072;28;20702;-83
2023/03/09 06:48:19;;;;;;;6.63;2.13;;;;;;;;;;4949076;28;20179;-82
2023/03/09 06:50:44;;;;;;;5.20;1.75;;;9.60;99.90;;;;;;4954039;28;20195;-83
2023/03/09 06:53:11;;;;;;;4.73;1.30;;;9.60;99.90;;;;;;4965170;28;20829;-83
2023/03/09 06:55:38;;;;;;;10.20;1.40;;;9.60;99.90;;;;;;4948960;28;20231;-82
2023/03/09 06:58:03;;;;;;;13.07;2.22;;;9.60;99.90;;;;;;4972836;28;20175;-80
2023/03/09 07:00:29;;;;;;;6.90;2.47;;;;;;;;;;4968060;28;20218;-83
2023/03/09 07:02:54;;;;;;;9.03;1.87;;;9.80;99.90;;;;;;4935049;28;20195;-82
2023/03/09 07:05:20;;;;;;;3.53;0.83;;;10.00;99.90;;;;;;4959412;28;20466;-81
2023/03/09 07:07:48;;;;;;;12.43;2.57;;;10.00;99.90;;;;;;4978581;28;20192;-81
2023/03/09 07:10:14;;;;;;;8.05;1.52;;;10.20;99.90;;;;;;4963345;28;20203;-82
2023/03/09 07:12:39;;;;;;;7.93;2.10;;;10.20;99.90;;;;;;4975453;28;20262;-85
2023/03/09 07:15:06;;;;;;;4.80;1.93;;;10.30;99.90;;;;;;4954257;28;20647;-78
2023/03/09 07:17:32;;;;;;;4.88;1.30;;;10.50;99.90;;;;;;4943714;28;20279;-83
2023/03/09 07:19:57;;;;;;;5.07;1.87;;;10.80;99.90;;;;;;4951885;28;20220;-78
2023/03/09 07:22:23;;;;;;;12.33;1.80;;;11.00;99.90;;;;;;4962208;28;20187;-81
2023/03/09 07:24:49;;;;;;;6.03;1.45;;;11.00;99.90;;;;;;4956695;28;20234;-82
2023/03/09 07:27:15;;;;;;;6.90;1.80;;;10.90;99.90;;;;;;4974219;28;20199;-78
2023/03/09 07:29:40;;;;;;;8.73;1.60;;;10.80;99.90;;;;;;4987379;28;20265;-83
2023/03/09 07:32:07;;;;;;;4.40;1.30;;;10.70;99.90;;;;;;4964138;28;20963;-84
2023/03/09 07:34:33;;;;;;;6.65;1.65;;;10.60;99.90;;;;;;4975272;28;20195;-85
2023/03/09 07:36:59;;;;;;;4.57;1.05;;;10.60;99.90;;;;;;4966585;28;20198;-80
2023/03/09 07:39:24;;;;;;;7.88;1.63;;;10.70;99.90;;;;;;4987972;28;20192;-82
2023/03/09 07:41:50;;;;;;;5.30;1.10;;;;;;;;;;4985253;28;20318;-81
2023/03/09 07:44:16;;;;;;;4.95;1.85;;;10.80;99.90;;;;;;4962470;28;20275;-82
2023/03/09 07:46:42;;;;;;;7.30;2.10;;;11.00;99.90;;;;;;4963625;28;20273;-81
2023/03/09 07:49:07;;;;;;;5.80;1.80;;;11.20;99.90;;;;;;4975531;28;20194;-79
2023/03/09 07:51:33;;;;;;;2.77;1.23;;;11.20;99.90;;;;;;4971572;28;20185;-81
2023/03/09 07:53:58;;;;;;;8.30;1.70;;;11.40;99.90;;;;;;4968868;28;20183;-80
2023/03/09 07:56:24;;;;;;;1.93;1.00;;;11.50;99.90;;;;;;4970707;28;20183;-83
2023/03/09 07:58:51;;;;;;;6.27;1.70;;;11.40;99.90;;;;;;4979438;28;20257;-82
2023/03/09 08:01:18;;;;;;;2.95;1.30;;;11.40;99.90;;;;;;4980753;28;20285;-83
2023/03/09 08:03:45;;;;;;;8.35;1.83;;;11.50;99.90;;;;;;4976066;28;20695;-83
2023/03/09 08:06:10;;;;;;;4.25;1.00;;;11.60;99.90;;;;;;4975167;28;20225;-82
2023/03/09 08:08:36;;;;;;;10.33;1.67;;;11.50;99.90;;;;;;4981675;28;20187;-82
2023/03/09 08:11:03;;;;;;;3.80;1.03;;;11.40;99.90;;;;;;4966234;28;20716;-82
2023/03/09 08:13:29;;;;;;;4.00;1.45;;;11.50;99.90;;;;;;4970285;28;20270;-78
2023/03/09 08:15:55;;;;;;;6.53;2.05;;;11.40;99.90;;;;;;4968580;28;20188;-84
2023/03/09 08:18:20;;;;;;;6.73;1.57;;;11.20;99.90;;;;;;4962048;28;20199;-80
2023/03/09 08:20:46;;;;;;;3.23;1.30;;;11.30;99.90;;;;;;4977451;28;20913;-80
2023/03/09 08:23:12;;;;;;;5.40;1.27;;;;;;;;;;4974080;28;20683;-78
2023/03/09 08:25:38;;;;;;;5.28;1.85;;;11.20;99.90;;;;;;4985398;28;20196;-82
2023/03/09 08:28:04;;;;;;;3.90;1.33;;;11.00;99.90;;;;;;4991188;28;20199;-81
2023/03/09 08:30:30;;;;;;;5.88;1.42;;;10.90;99.90;;;;;;4955754;28;20211;-82
2023/03/09 08:32:57;;;;;;;8.48;2.05;;;11.00;99.90;;;;;;4976214;28;20196;-83
2023/03/09 08:35:27;;;;;;;3.80;1.15;;;11.20;99.90;;;;;;4956992;28;20207;-83
2023/03/09 08:37:52;;;;;;;11.30;2.67;;;11.10;99.90;;;;;;4966487;28;20231;-85
2023/03/09 08:40:18;;;;;;;11.40;1.63;;;11.40;99.90;;;;;;4942958;28;20629;-82
2023/03/09 08:42:44;;;;;;;2.33;1.30;;;11.20;99.90;;;;;;4968888;28;20243;-84
2023/03/09 08:45:10;;;;;;;4.33;0.97;;;11.10;99.90;;;;;;4963709;28;20271;-83
2023/03/09 08:47:36;;;;;;;4.82;1.02;;;10.90;99.90;;;;;;4943822;28;21226;-79
2023/03/09 08:50:04;;;;;;;2.78;1.08;;;10.90;99.90;;;;;;4957991;28;20836;-83
2023/03/09 08:52:34;;;;;;;3.10;1.45;;;10.90;99.90;;;;;;4954853;28;20270;-83
2023/03/09 08:55:00;;;;;;;6.50;1.52;;;10.60;99.90;;;;;;4943182;28;20187;-82
2023/03/09 08:57:27;;;;;;;4.72;2.05;;;10.50;99.90;;;;;;4964295;28;20755;-80
2023/03/09 08:59:53;;;;;;;8.88;1.55;;;10.50;99.90;;;;;;4958346;28;20210;-82
2023/03/09 09:02:18;;;;;;;7.47;1.17;;;10.50;99.90;;;;;;4962790;28;20191;-81
2023/03/09 09:04:44;;;;;;;3.07;1.10;;;10.70;99.90;;;;;;4973792;28;20203;-81
2023/03/09 09:07:14;;;;;;;6.47;1.50;;;10.70;99.90;;;;;;4965842;28;20649;-82
2023/03/09 09:09:40;;;;;;;2.05;1.52;;;10.70;99.90;;;;;;4950775;28;20474;-84
2023/03/09 09:12:07;;;;;;;4.85;1.35;;;10.80;99.90;;;;;;4964671;28;20212;-86
2023/03/09 09:14:34;;;;;;;2.22;1.30;;;10.90;99.90;;;;;;4972130;28;20207;-81
2023/03/09 09:17:00;;;;;;;4.55;1.05;;;10.80;99.90;;;;;;4964283;28;20235;-82
2023/03/09 09:19:26;;;;;;;6.75;1.38;;;10.70;99.90;;;;;;4952953;28;20238;-84
2023/03/09 09:21:52;;;;;;;3.92;1.33;;;10.70;99.90;;;;;;4950796;28;20255;-83
2023/03/09 09:24:18;;;;;;;2.33;0.73;;;10.90;99.90;;;;;;4961466;28;20216;-82
2023/03/09 09:26:44;;;;;;;3.72;1.17;;;11.10;99.90;;;;;;4968643;28;20190;-83
2023/03/09 09:29:10;;;;;;;2.58;1.20;;;11.00;99.90;;;;;;4963599;28;20246;-85
2023/03/09 09:31:37;;;;;;;4.85;1.00;;;11.00;99.90;;;;;;4977210;28;20687;-83
2023/03/09 09:34:03;;;;;;;3.67;1.15;;;;;;;;;;4969427;28;20221;-83
2023/03/09 09:36:29;;;;;;;6.10;1.63;;;;;;;;;;4963024;28;20208;-82
2023/03/09 09:38:55;;;;;;;3.33;0.98;;;;;;;;;;4947401;28;20431;-83
2023/03/09 09:41:53;;;;;;;2.47;1.07;;;11.50;99.90;;;;;;4964751;28;20924;-82
2023/03/09 09:44:26;;;;;;;8.68;1.52;;;11.50;99.90;;;;;;4964710;28;20463;-81
2023/03/09 09:46:53;;;;;;;4.32;1.17;;;11.60;99.90;;;;;;4949188;28;20179;-80
2023/03/09 09:49:23;;;;;;;4.82;1.00;;;11.60;99.90;;;;;;4968164;28;20832;-81
2023/03/09 09:52:17;;;;;;;6.97;0.90;;;11.50;99.90;;;;;;4948068;28;20188;-83
2023/03/09 09:54:53;;;;;;;1.38;1.00;;;11.60;99.90;;;;;;4936077;28;20223;-82
2023/03/09 09:57:38;;;;;;;3.53;1.13;;;11.80;99.90;;;;;;4971617;28;20191;-81
2023/03/09 10:00:12;;;;;;;3.80;1.88;;;12.00;99.90;;;;;;4973151;28;20274;-82
2023/03/09 10:02:46;;;;;;;6.75;1.50;;;12.30;99.90;;;;;;4959120;28;20249;-82
2023/03/09 10:05:39;;;;;;;8.82;3.25;;;12.00;99.90;;;;;;4959110;28;20210;-80
2023/03/09 10:08:29;;;;;;;98.15;31.73;;;11.80;99.90;;;;;;4965665;28;20180;-82
2023/03/09 10:11:00;;;;;;;9.35;1.10;;;11.60;99.90;;;;;;4942715;28;21201;-82
2023/03/09 10:13:46;;;;;;;3.08;0.90;;;11.50;99.90;;;;;;4951095;28;20215;-82
2023/03/09 10:16:20;;;;;;;2.42;0.82;;;10.80;99.90;;;;;;4967708;28;20187;-81
2023/03/09 10:18:50;;;;;;;2.92;0.90;;;10.70;99.90;;;;;;4937328;28;20195;-82
2023/03/09 10:21:22;;;;;;;3.25;0.93;;;10.70;99.90;;;;;;4957920;28;20210;-79
2023/03/09 10:23:48;;;;;;;6.53;1.30;;;10.70;99.90;;;;;;4965461;28;20192;-82
2023/03/09 10:26:40;;;;;;;3.53;1.13;;;10.80;99.90;;;;;;4952804;28;20222;-82
2023/03/09 10:29:15;;;;;;;3.92;1.15;;;10.90;99.90;;;;;;4973662;28;20481;-81
2023/03/09 10:31:52;;;;;;;7.15;1.02;;;11.30;99.90;;;;;;4952957;28;20234;-82
2023/03/09 10:34:24;;;;;;;5.55;0.95;;;11.60;99.90;;;;;;4937107;28;20192;-81
2023/03/09 10:37:01;;;;;;;1.40;1.05;;;11.40;99.90;;;;;;4938002;28;20184;-82
2023/03/09 10:39:34;;;;;;;14.60;2.15;;;11.40;99.90;;;;;;4964579;28;20178;-78
2023/03/09 10:42:14;;;;;;;2.78;0.80;;;11.60;99.90;;;;;;4974443;28;20218;-84
2023/03/09 10:44:45;;;;;;;16.42;2.15;;;11.70;99.90;;;;;;4945319;28;20404;-80
2023/03/09 10:47:11;;;;;;;2.70;1.00;;;11.90;99.90;;;;;;4970677;28;20183;-81
2023/03/09 10:49:36;;;;;;;3.70;1.00;;;11.90;99.90;;;;;;4972696;28;20479;-82
2023/03/09 10:52:04;;;;;;;4.37;1.40;;;11.90;99.90;;;;;;4964970;28;20207;-80
2023/03/09 10:54:30;;;;;;;4.78;1.20;;;;;;;;;;4936533;28;20187;-82
2023/03/09 10:56:55;;;;;;;4.53;1.03;;;12.70;99.90;;;;;;4965717;28;20751;-82
2023/03/09 10:59:23;;;;;;;3.47;0.60;;;12.50;99.90;;;;;;4952613;28;21210;-79
2023/03/09 11:01:56;;;;;;;8.02;1.20;;;12.50;99.90;;;;;;4938128;28;20191;-80
2023/03/09 11:04:21;;;;;;;7.25;1.23;;;12.10;99.90;;;;;;4975197;28;20210;-80
2023/03/09 11:07:05;;;;;;;3.03;0.70;;;12.10;99.90;;;;;;4962935;28;20179;-78
2023/03/09 11:09:52;;;;;;;2.10;1.05;;;12.20;99.90;;;;;;4955717;28;20687;-82
2023/03/09 11:12:36;;;;;;;7.90;2.03;;;12.10;99.90;;;;;;4950227;28;20191;-78
2023/03/09 11:15:23;;;;;;;2.28;1.15;;;12.30;99.90;;;;;;4975883;28;20183;-82
2023/03/09 11:17:49;;;;;;;2.65;1.30;;;12.30;99.90;;;;;;4977622;28;20187;-79
2023/03/09 11:20:20;;;;;;;3.40;0.90;;;12.40;99.90;;;;;;4987016;28;20809;-83
2023/03/09 11:22:51;;;;;;;8.70;1.80;;;12.50;99.90;;;;;;4952164;28;20199;-83
2023/03/09 11:25:30;;;;;;;3.60;1.13;;;12.60;99.90;;;;;;4952569;28;20246;-81
2023/03/09 11:28:11;;;;;;;2.60;0.60;;;12.60;99.90;;;;;;4950711;28;21552;-83
2023/03/09 11:30:38;;;;;;;6.20;1.07;;;12.90;99.90;;;;;;4970150;28;20290;-80
2023/03/09 11:33:11;;;;;;;1.97;0.70;;;13.10;99.90;;;;;;4974967;28;20520;-82
2023/03/09 11:35:37;;;;;;;2.70;1.00;;;13.10;99.90;;;;;;4974179;28;20552;-81
2023/03/09 11:38:10;;;;;;;4.90;1.03;;;13.40;99.90;;;;;;4940759;28;20545;-81
2023/03/09 11:40:39;;;;;;;4.57;0.82;;;13.20;99.90;;;;;;4953419;28;20210;-80
2023/03/09 11:43:22;;;;;;;2.53;0.83;;;13.10;99.90;;;;;;4966006;28;20279;-80
2023/03/09 11:45:48;;;;;;;3.00;1.05;;;;;;;;;;4962398;28;20470;-81
2023/03/09 11:48:38;;;;;;;1.13;0.60;;;13.10;99.90;;;;;;4960549;28;20270;-80
2023/03/09 11:51:06;;;;;;;5.50;1.30;;;13.50;99.90;;;;;;4967125;28;20451;-80
2023/03/09 11:53:34;;;;;;;5.03;2.20;;;13.70;99.90;;;;;;4957593;28;20438;-82
2023/03/09 11:56:38;;;;;;;3.75;1.45;;;13.30;99.90;;;;;;4965772;28;20442;-83
2023/03/09 11:59:29;;;;;;;5.85;1.40;;;12.80;99.90;;;;;;4952028;28;20763;-81
2023/03/09 12:02:13;;;;;;;2.55;0.82;;;13.10;99.90;;;;;;4981035;28;20218;-82
2023/03/09 12:04:39;;;;;;;4.00;1.07;;;13.20;99.90;;;;;;4975735;28;20206;-79
2023/03/09 12:07:25;;;;;;;1.60;0.73;;;13.60;99.90;;;;;;4967555;28;20435;-81
2023/03/09 12:10:13;;;;;;;4.53;1.00;;;12.90;99.90;;;;;;4952660;28;20832;-83
2023/03/09 12:12:51;;;;;;;2.10;0.73;;;13.20;99.90;;;;;;4978123;28;20222;-83
2023/03/09 12:15:45;;;;;;;3.58;1.52;;;13.20;99.90;;;;;;4974167;28;20608;-82
2023/03/09 12:18:26;;;;;;;6.53;1.60;;;13.00;99.90;;;;;;4974003;28;20203;-82
2023/03/09 12:20:56;;;;;;;4.22;1.40;;;12.80;99.90;;;;;;4981505;28;20463;-78
2023/03/09 12:23:39;;;;;;;8.80;1.45;;;13.10;99.90;;;;;;4943330;28;20234;-82
2023/03/09 12:26:27;;;;;;;2.60;0.80;;;13.10;99.90;;;;;;4955006;28;21036;-79
2023/03/09 12:29:12;;;;;;;4.23;1.00;;;12.90;99.90;;;;;;4953639;28;20431;-80
2023/03/09 12:31:39;;;;;;;3.70;0.83;;;13.10;99.90;;;;;;4977205;28;20435;-81
2023/03/09 12:34:24;;;;;;;4.63;2.20;;;12.90;99.90;;;;;;4963495;28;20445;-80
2023/03/09 12:36:50;;;;;;;0.93;0.60;;;12.80;99.90;;;;;;4955584;28;23137;-82
2023/03/09 12:39:22;;;;;;;3.17;0.98;;;12.60;99.90;;;;;;4957821;28;20664;-81
2023/03/09 12:41:59;;;;;;;7.25;0.85;;;12.60;99.90;;;;;;4971301;28;20184;-82
2023/03/09 12:44:43;;;;;;;3.90;0.80;;;12.50;99.90;;;;;;4969954;28;20215;-80
2023/03/09 12:47:45;;;;;;;6.03;1.13;;;12.60;99.90;;;;;;4974269;28;20175;-80
2023/03/09 12:50:19;;;;;;;1.70;0.60;;;13.00;99.90;;;;;;4960232;28;20212;-80
2023/03/09 12:53:13;;;;;;;2.93;0.90;;;13.30;99.90;;;;;;4960201;28;20182;-78
2023/03/09 12:55:38;;;;;;;6.10;1.30;;;13.10;99.90;;;;;;4969824;28;20443;-78
2023/03/09 12:58:19;;;;;;;4.70;1.00;;;13.30;99.90;;;;;;4953872;28;20196;-80
2023/03/09 13:01:08;;;;;;;4.20;0.97;;;13.20;99.90;;;;;;4966379;28;20227;-81
2023/03/09 13:03:38;;;;;;;0.73;0.60;;;13.20;99.90;;;;;;4961075;28;20476;-81
2023/03/09 13:06:35;;;;;;;3.95;1.10;;;13.00;99.90;;;;;;4959650;28;20474;-80